Time;durP1;ratioP1;P1;durP2;ratioP2;P2;SDS_P1;SDS_P2;PMS_P1;PMS_P2;Temp;Humidity;BMP_temperature;BMP_pressure;BME280_temperature;BME280_humidity;BME280_pressure;Samples;Min_cycle;Max_cycle;Signal;HPM_P1;HPM_P2
2022/06/02 00:00:54;;;;;;;20.70;14.38;;;;;;;;;;4931704;29;20051;-62
2022/06/02 00:03:25;;;;;;;20.90;14.23;;;;;;;;;;4931975;29;20109;-62
2022/06/02 00:06:11;;;;;;;21.25;14.57;;;;;;;;;;4931818;29;20073;-61
2022/06/02 00:08:37;;;;;;;22.00;15.07;;;;;;;;;;4931904;29;20030;-62
2022/06/02 00:11:22;;;;;;;21.08;13.85;;;;;;;;;;4931318;29;20028;-62
2022/06/02 00:13:47;;;;;;;22.35;14.57;;;;;;;;;;4933533;29;20073;-61
2022/06/02 00:16:25;;;;;;;22.52;14.98;;;;;;;;;;4933261;29;20481;-62
2022/06/02 00:18:53;;;;;;;21.63;15.30;;;;;;;;;;4932591;29;20028;-60
2022/06/02 00:21:19;;;;;;;20.85;14.88;;;;;;;;;;4932811;29;20027;-62
2022/06/02 00:23:53;;;;;;;26.75;16.65;;;;;;;;;;4933385;29;20034;-62
2022/06/02 00:26:35;;;;;;;22.77;15.10;;;;;;;;;;4933151;29;20110;-63
2022/06/02 00:29:08;;;;;;;26.10;17.10;;;;;;;;;;4932729;29;20040;-61
2022/06/02 00:31:34;;;;;;;23.25;15.73;;;;;;;;;;4998365;28;20023;-62
2022/06/02 00:34:35;;;;;;;23.58;15.65;;;;;;;;;;4998655;28;20028;-62
2022/06/02 00:37:01;;;;;;;23.00;14.93;;;;;;;;;;4991497;28;20038;-60
2022/06/02 00:42:15;;;;;;;21.90;14.90;;;;;;;;;;4969714;28;20418;-66
2022/06/02 00:45:04;;;;;;;22.27;14.80;;;;;;;;;;4972708;28;20375;-66
2022/06/02 00:47:32;;;;;;;23.05;15.48;;;;;;;;;;4972278;28;20015;-66
2022/06/02 00:50:06;;;;;;;22.20;14.55;;;;;;;;;;4972278;28;20386;-66
2022/06/02 00:52:40;;;;;;;23.15;15.73;;;;;;;;;;4972460;28;20119;-65
2022/06/02 00:58:05;;;;;;;22.73;13.73;;;;;;;;;;4972045;28;20030;-66
2022/06/02 01:00:36;;;;;;;23.67;14.95;;;;;;;;;;4972009;28;20505;-66
2022/06/02 01:03:06;;;;;;;23.92;15.20;;;;;;;;;;4954717;28;20038;-66
2022/06/02 01:05:45;;;;;;;26.73;14.77;;;;;;;;;;4972071;28;20052;-66
2022/06/02 01:08:11;;;;;;;23.15;14.82;;;;;;;;;;4971931;28;20038;-66
2022/06/02 01:11:04;;;;;;;23.23;15.23;;;;;;;;;;4972017;28;20026;-66
2022/06/02 01:13:35;;;;;;;22.42;15.35;;;;;;;;;;4972441;28;20026;-66
2022/06/02 01:16:12;;;;;;;22.60;15.05;;;;;;;;;;4971979;28;20364;-66
2022/06/02 01:18:38;;;;;;;23.52;15.52;;;;;;;;;;4971922;28;20056;-66
2022/06/02 01:21:23;;;;;;;24.98;14.93;;;;;;;;;;4954602;28;20476;-66
2022/06/02 01:24:04;;;;;;;22.13;14.68;;;;;;;;;;4971982;28;20026;-66
2022/06/02 01:26:48;;;;;;;21.92;14.40;;;;;;;;;;4954701;28;20479;-66
2022/06/02 01:29:17;;;;;;;24.40;15.93;;;;;;;;;;4954421;28;20031;-66
2022/06/02 01:31:52;;;;;;;22.88;15.68;;;;;;;;;;4971816;28;20429;-67
2022/06/02 01:34:30;;;;;;;23.92;15.40;;;;;;;;;;4972090;28;20026;-64
2022/06/02 01:37:19;;;;;;;23.50;15.40;;;;;;;;;;4972029;28;20046;-64
2022/06/02 01:39:48;;;;;;;23.73;15.77;;;;;;;;;;4954721;28;20026;-65
2022/06/02 01:42:20;;;;;;;24.30;16.58;;;;;;;;;;4971830;28;20041;-65
2022/06/02 01:44:56;;;;;;;24.90;16.25;;;;;;;;;;4972075;28;20023;-65
2022/06/02 01:47:22;;;;;;;25.23;17.17;;;;;;;;;;4954237;28;20487;-65
2022/06/02 01:49:58;;;;;;;23.35;15.48;;;;;;;;;;4954399;28;20033;-65
2022/06/02 01:52:36;;;;;;;24.30;16.70;;;;;;;;;;4953453;28;20031;-65
2022/06/02 01:55:08;;;;;;;24.05;16.10;;;;;;;;;;4971645;28;20457;-65
2022/06/02 01:57:40;;;;;;;23.58;15.65;;;;;;;;;;4971156;28;20035;-65
2022/06/02 02:00:09;;;;;;;24.92;16.33;;;;;;;;;;4971551;28;20019;-65
2022/06/02 02:02:54;;;;;;;26.02;17.05;;;;;;;;;;4971362;28;20023;-65
2022/06/02 02:05:26;;;;;;;27.35;17.90;;;;;;;;;;4971492;28;20027;-65
2022/06/02 02:08:11;;;;;;;26.52;17.20;;;;;;;;;;4971275;28;20050;-65
2022/06/02 02:10:43;;;;;;;28.15;17.23;;;;;;;;;;4971341;28;20371;-64
2022/06/02 02:13:12;;;;;;;26.30;17.17;;;;;;;;;;4953891;28;20023;-67
2022/06/02 02:15:56;;;;;;;27.27;17.95;;;;;;;;;;4971120;28;20077;-66
2022/06/02 02:18:38;;;;;;;25.50;17.20;;;;;;;;;;4971268;28;20075;-65
2022/06/02 02:21:19;;;;;;;28.38;17.38;;;;;;;;;;4971681;28;20031;-65
2022/06/02 02:23:45;;;;;;;27.40;18.42;;;;;;;;;;4953834;28;20035;-65
2022/06/02 02:26:18;;;;;;;26.70;17.65;;;;;;;;;;4953672;28;20027;-65
2022/06/02 02:28:51;;;;;;;25.75;17.55;;;;;;;;;;4970739;28;20023;-66
2022/06/02 02:31:26;;;;;;;27.42;18.35;;;;;;;;;;4970834;28;20034;-65
2022/06/02 02:34:13;;;;;;;28.92;19.67;;;;;;;;;;4971103;28;20101;-64
2022/06/02 02:36:57;;;;;;;29.38;18.35;;;;;;;;;;4971334;28;20076;-65
2022/06/02 02:39:26;;;;;;;26.55;17.98;;;;;;;;;;4970817;28;20098;-65
2022/06/02 02:42:01;;;;;;;26.90;17.48;;;;;;;;;;4970502;28;20121;-65
2022/06/02 02:44:34;;;;;;;27.50;18.42;;;;;;;;;;4970793;28;20031;-64
2022/06/02 02:47:16;;;;;;;27.90;19.20;;;;;;;;;;4970492;28;20482;-64
2022/06/02 02:49:48;;;;;;;31.52;20.20;;;;;;;;;;4970574;28;20031;-65
2022/06/02 02:52:35;;;;;;;30.88;20.88;;;;;;;;;;4953392;28;20037;-65
2022/06/02 02:55:01;;;;;;;31.75;22.27;;;;;;;;;;4970738;28;20019;-65
2022/06/02 02:57:46;;;;;;;29.85;19.73;;;;;;;;;;4952831;28;20050;-65
2022/06/02 03:00:33;;;;;;;28.80;19.60;;;;;;;;;;4952956;28;20402;-65
2022/06/02 03:03:20;;;;;;;29.98;19.85;;;;;;;;;;4971740;28;20023;-65
2022/06/02 03:06:01;;;;;;;29.00;19.48;;;;;;;;;;4973418;28;20479;-65
2022/06/02 03:08:41;;;;;;;31.00;20.38;;;;;;;;;;4973666;28;20510;-65
2022/06/02 03:11:16;;;;;;;30.55;19.88;;;;;;;;;;4973660;28;20027;-65
2022/06/02 03:14:05;;;;;;;30.42;19.52;;;;;;;;;;4974040;28;20027;-65
2022/06/02 03:16:32;;;;;;;29.70;20.13;;;;;;;;;;4973569;28;20474;-65
2022/06/02 03:19:17;;;;;;;30.30;19.45;;;;;;;;;;4956226;28;20026;-66
2022/06/02 03:21:52;;;;;;;29.60;19.63;;;;;;;;;;4973646;28;20402;-64
2022/06/02 03:24:32;;;;;;;31.33;21.05;;;;;;;;;;4973609;28;20079;-65
2022/06/02 03:27:03;;;;;;;31.70;20.67;;;;;;;;;;4973716;28;20042;-66
2022/06/02 03:29:41;;;;;;;31.73;20.42;;;;;;;;;;4973514;28;20022;-65
2022/06/02 03:32:07;;;;;;;31.65;19.80;;;;;;;;;;4956192;28;20087;-65
2022/06/02 03:34:33;;;;;;;30.20;19.80;;;;;;;;;;4955978;28;20488;-65
2022/06/02 03:37:05;;;;;;;31.15;21.38;;;;;;;;;;4973159;28;20034;-65
2022/06/02 03:39:34;;;;;;;31.13;20.80;;;;;;;;;;4973169;28;20027;-64
2022/06/02 03:42:15;;;;;;;34.85;22.20;;;;;;;;;;4973115;28;20038;-64
2022/06/02 03:44:47;;;;;;;29.42;19.92;;;;;;;;;;4973195;28;20118;-65
2022/06/02 03:47:16;;;;;;;31.50;19.88;;;;;;;;;;4973625;28;20034;-64
2022/06/02 03:49:43;;;;;;;30.88;20.17;;;;;;;;;;4974553;28;20114;-65
2022/06/02 03:52:11;;;;;;;32.40;19.50;;;;;;;;;;4974306;28;20055;-65
2022/06/02 03:54:37;;;;;;;;;;;;;;;;;;4957043;28;20030;-64
2022/06/02 03:57:03;;;;;;;31.00;19.08;;;;;;;;;;4974240;28;20034;-65
2022/06/02 03:59:48;;;;;;;28.55;19.67;;;;;;;;;;4973351;28;20015;-65
2022/06/02 04:02:19;;;;;;;32.88;21.67;;;;;;;;;;4973358;28;20033;-65
2022/06/02 04:05:04;;;;;;;31.50;20.17;;;;;;;;;;4955742;28;20038;-64
2022/06/02 04:07:30;;;;;;;30.58;21.35;;;;;;;;;;4972988;28;20034;-65
2022/06/02 04:09:56;;;;;;;30.10;20.67;;;;;;;;;;4973095;28;20027;-65
2022/06/02 04:15:29;;;;;;;29.13;20.45;;;;;;;;;;4973047;28;20026;-65
2022/06/02 04:18:12;;;;;;;30.88;19.90;;;;;;;;;;4972936;28;20076;-65
2022/06/02 04:20:39;;;;;;;29.83;20.55;;;;;;;;;;4955235;28;20066;-65
2022/06/02 04:23:05;;;;;;;31.65;21.05;;;;;;;;;;4972679;28;20482;-65
2022/06/02 04:25:40;;;;;;;31.20;21.50;;;;;;;;;;4972675;28;20110;-66
2022/06/02 04:28:06;;;;;;;33.85;20.33;;;;;;;;;;4972013;28;20031;-65
2022/06/02 04:31:10;;;;;;;32.35;21.10;;;;;;;;;;4972357;28;20023;-65
2022/06/02 04:33:57;;;;;;;30.38;22.77;;;;;;;;;;4973563;28;20466;-65
2022/06/02 04:36:32;;;;;;;29.50;20.88;;;;;;;;;;4972878;28;20023;-65
2022/06/02 04:39:05;;;;;;;32.67;23.08;;;;;;;;;;4955899;28;20085;-65
2022/06/02 04:41:30;;;;;;;30.15;21.58;;;;;;;;;;4954919;28;20406;-64
2022/06/02 04:44:09;;;;;;;30.23;21.17;;;;;;;;;;4972426;28;20022;-66
2022/06/02 04:46:47;;;;;;;31.38;21.95;;;;;;;;;;4972551;28;20106;-65
2022/06/02 04:49:16;;;;;;;32.58;22.05;;;;;;;;;;4972106;28;20023;-65
2022/06/02 04:51:52;;;;;;;32.75;22.42;;;;;;;;;;4955087;28;20413;-64
2022/06/02 04:54:37;;;;;;;29.95;20.65;;;;;;;;;;4972276;28;20390;-66
2022/06/02 04:57:03;;;;;;;30.60;21.80;;;;;;;;;;4972230;28;20449;-66
2022/06/02 04:59:32;;;;;;;31.80;22.40;;;;;;;;;;4971868;28;20027;-66
2022/06/02 05:02:17;;;;;;;29.38;20.63;;;;;;;;;;4971737;28;20031;-66
2022/06/02 05:05:01;;;;;;;29.63;21.30;;;;;;;;;;4971779;28;20726;-64
2022/06/02 05:07:36;;;;;;;29.38;21.25;;;;;;;;;;4971224;28;20027;-65
2022/06/02 05:10:16;;;;;;;30.17;20.40;;;;;;;;;;4971294;28;20034;-65
2022/06/02 05:12:51;;;;;;;29.42;20.77;;;;;;;;;;4971626;28;20458;-65
2022/06/02 05:15:36;;;;;;;28.33;20.27;;;;;;;;;;4971440;28;20027;-65
2022/06/02 05:18:22;;;;;;;28.35;19.85;;;;;;;;;;4971391;28;20037;-65
2022/06/02 05:20:48;;;;;;;28.67;21.08;;;;;;;;;;4971522;28;20027;-65
2022/06/02 05:23:33;;;;;;;28.48;20.40;;;;;;;;;;4971443;28;20444;-64
2022/06/02 05:26:24;;;;;;;27.23;19.90;;;;;;;;;;4971186;28;20031;-65
2022/06/02 05:29:01;;;;;;;27.13;18.88;;;;;;;;;;4970936;28;20031;-64
2022/06/02 05:31:45;;;;;;;27.15;20.60;;;;;;;;;;4970984;28;20027;-65
2022/06/02 05:34:11;;;;;;;26.58;18.08;;;;;;;;;;4971578;28;20531;-65
2022/06/02 05:36:49;;;;;;;28.30;18.83;;;;;;;;;;4971251;28;20064;-65
2022/06/02 05:39:30;;;;;;;28.40;19.73;;;;;;;;;;4953810;28;20474;-65
2022/06/02 05:42:02;;;;;;;26.63;18.17;;;;;;;;;;4970758;28;20039;-65
2022/06/02 05:44:47;;;;;;;27.60;18.45;;;;;;;;;;4953837;28;20122;-65
2022/06/02 05:47:21;;;;;;;26.27;17.67;;;;;;;;;;4970796;28;20027;-64
2022/06/02 05:49:53;;;;;;;26.92;18.20;;;;;;;;;;4971046;28;20030;-66
2022/06/02 05:52:23;;;;;;;27.25;18.58;;;;;;;;;;4971148;28;20050;-64
2022/06/02 05:54:55;;;;;;;26.75;18.50;;;;;;;;;;4971059;28;20394;-65
2022/06/02 05:57:20;;;;;;;26.73;17.80;;;;;;;;;;4970732;28;20034;-64
2022/06/02 05:59:53;;;;;;;23.30;16.58;;;;;;;;;;4953715;28;20386;-65
2022/06/02 06:02:19;;;;;;;27.30;17.38;;;;;;;;;;4971251;28;20027;-64
2022/06/02 06:04:58;;;;;;;25.38;17.00;;;;;;;;;;4970819;28;20054;-64
2022/06/02 06:07:40;;;;;;;27.10;16.60;;;;;;;;;;4964835;28;20034;-65
2022/06/02 06:10:25;;;;;;;24.92;16.55;;;;;;;;;;4970664;28;20126;-65
2022/06/02 06:13:08;;;;;;;22.52;15.45;;;;;;;;;;4954316;28;20460;-65
2022/06/02 06:15:43;;;;;;;22.98;14.48;;;;;;;;;;4934373;28;20126;-65
2022/06/02 06:18:21;;;;;;;20.60;13.80;;;;;;;;;;4951227;28;20027;-64
2022/06/02 06:21:02;;;;;;;19.58;12.15;;;;;;;;;;4951909;28;20035;-65
2022/06/02 06:23:34;;;;;;;19.65;11.63;;;;;;;;;;4952318;28;20035;-65
2022/06/02 06:26:03;;;;;;;18.63;11.80;;;;;;;;;;4951524;28;20399;-65
2022/06/02 06:28:33;;;;;;;19.55;12.30;;;;;;;;;;4951099;28;20029;-65
2022/06/02 06:31:10;;;;;;;19.30;11.90;;;;;;;;;;4959392;28;20343;-65
2022/06/02 06:33:36;;;;;;;18.88;11.80;;;;;;;;;;4970123;28;20077;-64
2022/06/02 06:36:14;;;;;;;20.83;11.65;;;;;;;;;;4970300;28;20027;-64
2022/06/02 06:39:00;;;;;;;18.63;11.90;;;;;;;;;;4961896;28;20376;-64
2022/06/02 06:41:45;;;;;;;19.05;11.00;;;;;;;;;;4970821;23;20051;-61
2022/06/02 06:44:21;;;;;;;19.00;11.40;;;;;;;;;;4968985;28;20314;-62
2022/06/02 06:46:56;;;;;;;20.25;11.25;;;;;;;;;;4968926;28;20014;-61
2022/06/02 06:49:34;;;;;;;18.15;10.73;;;;;;;;;;4969499;28;20416;-63
2022/06/02 06:52:00;;;;;;;17.65;11.00;;;;;;;;;;4954576;28;20510;-62
2022/06/02 06:54:45;;;;;;;18.88;10.38;;;;;;;;;;4949603;28;20510;-61
2022/06/02 06:57:15;;;;;;;18.48;10.15;;;;;;;;;;4949452;28;20035;-58
2022/06/02 06:59:54;;;;;;;16.63;9.93;;;;;;;;;;4950007;29;20453;-62
2022/06/02 07:02:32;;;;;;;17.73;10.15;;;;;;;;;;4949556;28;20063;-59
2022/06/02 07:05:04;;;;;;;18.23;10.88;;;;;;;;;;4931974;28;20031;-64
2022/06/02 07:07:57;;;;;;;15.98;9.82;;;;;;;;;;4949197;28;20031;-63
2022/06/02 07:10:29;;;;;;;16.88;10.32;;;;;;;;;;4946444;28;20119;-61
2022/06/02 07:13:02;;;;;;;16.88;10.00;;;;;;;;;;4949589;28;20028;-62
2022/06/02 07:15:30;;;;;;;17.38;9.82;;;;;;;;;;4949179;28;20043;-62
2022/06/02 07:18:12;;;;;;;16.80;9.77;;;;;;;;;;4948913;29;20027;-62
2022/06/02 07:20:50;;;;;;;16.88;9.85;;;;;;;;;;4949079;28;20470;-62
2022/06/02 07:23:21;;;;;;;17.15;9.90;;;;;;;;;;4949487;28;20119;-63
2022/06/02 07:25:51;;;;;;;16.48;9.60;;;;;;;;;;4932250;29;20467;-62
2022/06/02 07:28:35;;;;;;;16.50;9.27;;;;;;;;;;4949175;29;20064;-60
2022/06/02 07:31:04;;;;;;;15.63;8.70;;;;;;;;;;4949221;28;20031;-63
2022/06/02 07:33:36;;;;;;;16.55;9.18;;;;;;;;;;4949463;29;20023;-63
2022/06/02 07:36:08;;;;;;;17.80;9.40;;;;;;;;;;4949161;29;20081;-62
2022/06/02 07:38:51;;;;;;;15.77;9.25;;;;;;;;;;4949020;28;20110;-61
2022/06/02 07:41:23;;;;;;;16.05;9.60;;;;;;;;;;4949492;28;20035;-63
2022/06/02 07:44:04;;;;;;;17.13;9.93;;;;;;;;;;4949162;28;20038;-60
2022/06/02 07:46:49;;;;;;;17.50;9.70;;;;;;;;;;4932188;28;20028;-62
2022/06/02 07:49:15;;;;;;;15.40;8.77;;;;;;;;;;4930359;29;20035;-61
2022/06/02 07:51:42;;;;;;;20.40;10.65;;;;;;;;;;4929498;29;20038;-62
2022/06/02 07:54:21;;;;;;;16.52;9.45;;;;;;;;;;4952374;28;20051;-60
2022/06/02 07:56:56;;;;;;;16.83;10.07;;;;;;;;;;4952573;28;20024;-56
2022/06/02 07:59:33;;;;;;;15.80;9.32;;;;;;;;;;4952226;28;20105;-58
2022/06/02 08:01:59;;;;;;;16.23;9.35;;;;;;;;;;4952017;29;20038;-58
2022/06/02 08:04:25;;;;;;;17.27;9.63;;;;;;;;;;4948814;28;20023;-57
2022/06/02 08:07:02;;;;;;;15.82;9.15;;;;;;;;;;4933449;29;20027;-59
2022/06/02 08:09:47;;;;;;;17.63;9.60;;;;;;;;;;4933156;29;20042;-60
2022/06/02 08:12:27;;;;;;;16.38;10.02;;;;;;;;;;4932750;29;20570;-59
2022/06/02 08:14:58;;;;;;;16.33;9.57;;;;;;;;;;4933067;29;20086;-60
2022/06/02 08:17:30;;;;;;;17.30;9.85;;;;;;;;;;4932760;29;20032;-57
2022/06/02 08:19:57;;;;;;;16.13;10.05;;;;;;;;;;4932932;29;20048;-60
2022/06/02 08:22:44;;;;;;;16.90;10.63;;;;;;;;;;4932808;29;20400;-60
2022/06/02 08:25:22;;;;;;;17.77;10.02;;;;;;;;;;4937460;28;20382;-60
2022/06/02 08:27:58;;;;;;;18.25;10.93;;;;;;;;;;4942469;29;20098;-60
2022/06/02 08:30:40;;;;;;;17.65;10.40;;;;;;;;;;4940775;29;20094;-59
2022/06/02 08:33:16;;;;;;;17.30;10.32;;;;;;;;;;4958532;28;20113;-58
2022/06/02 08:35:46;;;;;;;16.95;10.65;;;;;;;;;;4941007;28;20039;-60
2022/06/02 08:38:12;;;;;;;18.33;9.68;;;;;;;;;;4941528;28;20030;-59
2022/06/02 08:40:41;;;;;;;17.80;10.27;;;;;;;;;;4925350;29;20028;-58
2022/06/02 08:43:26;;;;;;;15.30;9.27;;;;;;;;;;4942677;28;20023;-56
2022/06/02 08:45:52;;;;;;;14.60;9.30;;;;;;;;;;4942729;29;20019;-59
2022/06/02 08:48:20;;;;;;;15.05;9.18;;;;;;;;;;4942014;29;20134;-59
2022/06/02 08:50:46;;;;;;;16.52;9.77;;;;;;;;;;4942056;29;20023;-58
2022/06/02 08:53:31;;;;;;;17.63;9.98;;;;;;;;;;4939932;29;20509;-58
2022/06/02 08:56:03;;;;;;;16.83;9.40;;;;;;;;;;4942441;28;20392;-60
2022/06/02 08:58:38;;;;;;;17.38;10.07;;;;;;;;;;4943372;29;20448;-58
2022/06/02 09:01:23;;;;;;;16.45;10.40;;;;;;;;;;4944755;28;20049;-59
2022/06/02 09:04:07;;;;;;;18.38;10.35;;;;;;;;;;4943110;28;20023;-59
2022/06/02 09:06:33;;;;;;;17.80;9.93;;;;;;;;;;4942681;28;20031;-61
2022/06/02 09:09:17;;;;;;;16.30;10.57;;;;;;;;;;4940889;29;20121;-53
2022/06/02 09:11:53;;;;;;;20.50;11.20;;;;;;;;;;4942267;28;20027;-58
2022/06/02 09:14:19;;;;;;;18.70;10.32;;;;;;;;;;4931958;29;20024;-59
2022/06/02 09:16:45;;;;;;;15.45;10.48;;;;;;;;;;4931300;29;20035;-59
2022/06/02 09:19:17;;;;;;;16.35;11.07;;;;;;;;;;4914571;29;20053;-61
2022/06/02 09:22:02;;;;;;;15.90;10.48;;;;;;;;;;4933257;29;20555;-60
2022/06/02 09:24:34;;;;;;;20.95;11.23;;;;;;;;;;4942027;28;20039;-58
2022/06/02 09:27:12;;;;;;;16.65;10.00;;;;;;;;;;4946770;29;20135;-59
2022/06/02 09:29:38;;;;;;;18.80;10.30;;;;;;;;;;4951072;28;20080;-57
2022/06/02 09:32:22;;;;;;;17.05;10.70;;;;;;;;;;4933441;28;20407;-59
2022/06/02 09:34:59;;;;;;;15.60;9.60;;;;;;;;;;4940619;29;20036;-58
2022/06/02 09:37:43;;;;;;;16.73;9.63;;;;;;;;;;4941603;29;20122;-59
2022/06/02 09:40:19;;;;;;;16.67;11.02;;;;;;;;;;4942003;29;20032;-60
2022/06/02 09:43:04;;;;;;;15.98;9.80;;;;;;;;;;4940230;28;20027;-59
2022/06/02 09:45:30;;;;;;;16.42;10.02;;;;;;;;;;4941793;29;20107;-61
2022/06/02 09:47:59;;;;;;;16.02;10.60;;;;;;;;;;4931144;29;20059;-60
2022/06/02 09:50:34;;;;;;;17.42;11.20;;;;;;;;;;4931411;29;20049;-58
2022/06/02 09:53:00;;;;;;;17.02;10.35;;;;;;;;;;4931630;29;20510;-61
2022/06/02 09:55:45;;;;;;;18.05;11.00;;;;;;;;;;4931640;29;20067;-61
2022/06/02 09:58:18;;;;;;;17.08;10.27;;;;;;;;;;4931123;29;20050;-59
2022/06/02 10:00:44;;;;;;;16.00;10.95;;;;;;;;;;4931180;29;20039;-58
2022/06/02 10:03:16;;;;;;;15.80;10.43;;;;;;;;;;4931453;29;20032;-52
2022/06/02 10:06:01;;;;;;;16.00;9.65;;;;;;;;;;4931513;29;20031;-57
2022/06/02 10:08:27;;;;;;;16.77;10.52;;;;;;;;;;4931052;29;20484;-51
2022/06/02 10:11:01;;;;;;;17.00;10.90;;;;;;;;;;4931411;29;20032;-53
2022/06/02 10:13:46;;;;;;;17.45;10.40;;;;;;;;;;4931039;29;20087;-62
2022/06/02 10:16:30;;;;;;;16.05;10.43;;;;;;;;;;4931295;29;20024;-60
2022/06/02 10:18:59;;;;;;;16.73;10.52;;;;;;;;;;4930598;29;20399;-61
2022/06/02 10:21:31;;;;;;;15.95;10.30;;;;;;;;;;4930822;29;20093;-62
2022/06/02 10:24:00;;;;;;;17.20;10.52;;;;;;;;;;4913846;29;20027;-63
2022/06/02 10:26:35;;;;;;;15.40;10.07;;;;;;;;;;4930865;29;20032;-61
2022/06/02 10:29:01;;;;;;;14.60;9.05;;;;;;;;;;4930864;29;20040;-63
2022/06/02 10:31:42;;;;;;;15.25;9.40;;;;;;;;;;4932942;29;20078;-62
2022/06/02 10:34:27;;;;;;;16.77;9.27;;;;;;;;;;4949886;29;20448;-61
2022/06/02 10:36:56;;;;;;;16.23;9.07;;;;;;;;;;4950129;29;20297;-60
2022/06/02 10:39:31;;;;;;;14.55;9.07;;;;;;;;;;4949634;28;20034;-61
2022/06/02 10:42:00;;;;;;;15.25;9.00;;;;;;;;;;4949293;28;20517;-62
2022/06/02 10:44:44;;;;;;;15.27;8.77;;;;;;;;;;4949419;28;20517;-62
2022/06/02 10:47:28;;;;;;;15.30;8.70;;;;;;;;;;4949473;29;20038;-57
2022/06/02 10:50:13;;;;;;;14.73;9.05;;;;;;;;;;4949711;28;20076;-61
2022/06/02 10:52:39;;;;;;;16.15;9.13;;;;;;;;;;4949774;29;20070;-62
2022/06/02 10:55:07;;;;;;;15.13;9.20;;;;;;;;;;4950168;28;20062;-61
2022/06/02 10:58:06;;;;;;;15.15;9.40;;;;;;;;;;4949876;29;20024;-56
2022/06/02 11:00:32;;;;;;;16.88;9.77;;;;;;;;;;4954090;28;20038;-58
2022/06/02 11:03:16;;;;;;;16.17;9.95;;;;;;;;;;4949508;28;20383;-60
2022/06/02 11:05:42;;;;;;;16.30;10.60;;;;;;;;;;4949604;28;20039;-57
2022/06/02 11:08:27;;;;;;;15.38;10.20;;;;;;;;;;4948205;28;20231;-55
2022/06/02 11:11:08;;;;;;;15.63;9.98;;;;;;;;;;4949121;28;20035;-56
2022/06/02 11:13:53;;;;;;;15.05;9.82;;;;;;;;;;4949417;29;20039;-57
2022/06/02 11:16:19;;;;;;;16.45;9.38;;;;;;;;;;4949229;29;20027;-54
2022/06/02 11:18:54;;;;;;;16.38;9.57;;;;;;;;;;4942100;29;20332;-58
2022/06/02 11:21:40;;;;;;;14.50;9.15;;;;;;;;;;4930535;29;20039;-57
2022/06/02 11:24:25;;;;;;;15.80;9.18;;;;;;;;;;4902581;29;20036;-58
2022/06/02 11:26:51;;;;;;;16.92;9.88;;;;;;;;;;4916775;29;20035;-55
2022/06/02 11:29:23;;;;;;;14.90;9.85;;;;;;;;;;4933814;29;20138;-58
2022/06/02 11:32:07;;;;;;;15.00;9.77;;;;;;;;;;4938676;29;20456;-57
2022/06/02 11:34:48;;;;;;;14.85;9.88;;;;;;;;;;4952963;28;20102;-58
2022/06/02 11:37:14;;;;;;;15.63;10.27;;;;;;;;;;4952898;29;20098;-59
2022/06/02 11:40:01;;;;;;;16.08;10.52;;;;;;;;;;4953192;28;20039;-61
2022/06/02 11:42:47;;;;;;;14.98;10.40;;;;;;;;;;4922378;29;20537;-59
2022/06/02 11:45:31;;;;;;;15.40;10.30;;;;;;;;;;4952286;29;20050;-58
2022/06/02 11:48:17;;;;;;;15.75;10.20;;;;;;;;;;4952718;29;20476;-60
2022/06/02 11:50:43;;;;;;;15.18;10.98;;;;;;;;;;4952447;28;20023;-60
2022/06/02 11:53:09;;;;;;;16.88;10.77;;;;;;;;;;4952423;29;20069;-59
2022/06/02 11:55:35;;;;;;;15.23;11.30;;;;;;;;;;4953038;29;20019;-61
2022/06/02 11:58:10;;;;;;;15.75;11.18;;;;;;;;;;4952396;28;20365;-57
2022/06/02 12:00:46;;;;;;;14.75;10.50;;;;;;;;;;4952335;28;20031;-57
2022/06/02 12:03:12;;;;;;;15.55;10.70;;;;;;;;;;4950880;28;20024;-58
2022/06/02 12:05:57;;;;;;;17.13;11.93;;;;;;;;;;4952259;28;20035;-58
2022/06/02 12:08:23;;;;;;;15.40;11.30;;;;;;;;;;4952082;28;20416;-56
2022/06/02 12:10:55;;;;;;;17.48;11.63;;;;;;;;;;4952221;28;20035;-60
2022/06/02 12:13:27;;;;;;;15.85;11.18;;;;;;;;;;4950767;28;20030;-60
2022/06/02 12:16:14;;;;;;;15.70;11.27;;;;;;;;;;4952363;28;20031;-59
2022/06/02 12:18:46;;;;;;;16.67;11.40;;;;;;;;;;4951973;28;20097;-56
2022/06/02 12:21:31;;;;;;;16.45;12.32;;;;;;;;;;4947228;28;20121;-59
2022/06/02 12:23:57;;;;;;;19.35;12.20;;;;;;;;;;4936776;29;20032;-58
2022/06/02 12:26:29;;;;;;;16.52;12.05;;;;;;;;;;4922498;29;20038;-58
2022/06/02 12:29:14;;;;;;;16.15;12.43;;;;;;;;;;4943510;28;20106;-56
2022/06/02 12:32:06;;;;;;;15.88;12.18;;;;;;;;;;4605648;28;9999632;-58
2022/06/02 12:34:32;;;;;;;17.50;12.02;;;;;;;;;;4915643;29;20035;-57
2022/06/02 12:37:04;;;;;;;16.60;12.05;;;;;;;;;;4939272;28;20058;-59
2022/06/02 12:39:42;;;;;;;16.77;11.70;;;;;;;;;;4934386;29;20462;-60
2022/06/02 12:42:08;;;;;;;;;;;;;;;;;;4976759;23;20063;-64
2022/06/02 12:45:07;;;;;;;16.33;12.02;;;;;;;;;;4967694;28;19960;-63
2022/06/02 12:47:48;;;;;;;17.40;13.00;;;;;;;;;;4951589;28;20035;-63
2022/06/02 12:50:29;;;;;;;17.85;12.23;;;;;;;;;;4950677;28;20106;-63
2022/06/02 12:52:58;;;;;;;15.80;10.82;;;;;;;;;;4943922;28;20033;-62
2022/06/02 12:55:40;;;;;;;17.30;11.88;;;;;;;;;;4956029;28;20065;-64
2022/06/02 12:58:18;;;;;;;16.27;11.90;;;;;;;;;;4934994;28;20030;-63
2022/06/02 13:00:45;;;;;;;;;;;;;;;;;;4935586;28;20487;-64
2022/06/02 13:03:37;;;;;;;16.60;12.23;;;;;;;;;;4867448;28;10000832;-65
2022/06/02 13:06:12;;;;;;;16.02;11.38;;;;;;;;;;4960766;28;20807;-65
2022/06/02 13:08:48;;;;;;;16.65;12.57;;;;;;;;;;4960576;28;20027;-63
2022/06/02 13:11:20;;;;;;;17.75;12.48;;;;;;;;;;4959087;28;20027;-63
2022/06/02 13:13:48;;;;;;;17.33;12.55;;;;;;;;;;4961189;28;20026;-64
2022/06/02 13:16:20;;;;;;;16.10;12.60;;;;;;;;;;4960373;28;20029;-64
2022/06/02 13:18:46;;;;;;;20.38;15.48;;;;;;;;;;4959949;28;20047;-64
2022/06/02 13:21:26;;;;;;;17.23;13.10;;;;;;;;;;4960519;28;20116;-66
2022/06/02 13:24:08;;;;;;;17.05;12.38;;;;;;;;;;4962455;28;20328;-64
2022/06/02 13:26:46;;;;;;;17.80;12.45;;;;;;;;;;4960285;28;20510;-62
2022/06/02 13:29:27;;;;;;;17.30;13.30;;;;;;;;;;4942365;28;20023;-62
2022/06/02 13:32:13;;;;;;;16.13;12.70;;;;;;;;;;4959446;28;20077;-63
2022/06/02 13:34:57;;;;;;;17.73;12.63;;;;;;;;;;4951618;29;20035;-63
2022/06/02 13:37:29;;;;;;;19.48;15.20;;;;;;;;;;4951110;28;20093;-62
2022/06/02 13:40:00;;;;;;;21.00;13.15;;;;;;;;;;4678450;28;10001186;-63
2022/06/02 13:42:35;;;;;;;17.48;12.40;;;;;;;;;;4930225;29;20347;-63
2022/06/02 13:45:04;;;;;;;18.67;13.27;;;;;;;;;;4947959;28;20046;-63
2022/06/02 13:47:49;;;;;;;15.50;11.38;;;;;;;;;;4947178;28;20118;-64
2022/06/02 13:50:23;;;;;;;16.40;11.70;;;;;;;;;;4953504;28;20042;-63
2022/06/02 13:53:04;;;;;;;17.42;12.10;;;;;;;;;;4958873;28;20440;-63
2022/06/02 13:58:56;;;;;;;17.23;13.15;;;;;;;;;;4969938;28;20462;-63
2022/06/02 14:01:41;;;;;;;17.63;12.50;;;;;;;;;;4607460;28;9999821;-62
2022/06/02 14:04:36;;;;;;;16.80;12.32;;;;;;;;;;4963533;28;20027;-58
2022/06/02 14:07:15;;;;;;;15.98;11.80;;;;;;;;;;4948028;28;20493;-62
2022/06/02 14:09:54;;;;;;;16.25;11.25;;;;;;;;;;4930695;28;20035;-59
2022/06/02 14:12:29;;;;;;;16.45;11.30;;;;;;;;;;4934905;28;20041;-62
2022/06/02 14:15:08;;;;;;;16.50;12.63;;;;;;;;;;4940385;28;20023;-61
2022/06/02 14:17:43;;;;;;;16.23;12.63;;;;;;;;;;4957599;28;20108;-62
2022/06/02 14:20:18;;;;;;;16.33;12.27;;;;;;;;;;4958407;28;20030;-62
2022/06/02 14:22:50;;;;;;;16.48;12.15;;;;;;;;;;4959278;28;20023;-63
2022/06/02 14:25:34;;;;;;;23.27;19.60;;;;;;;;;;4955422;28;20031;-62
2022/06/02 14:28:19;;;;;;;15.40;11.38;;;;;;;;;;4952549;28;20042;-63
2022/06/02 14:30:52;;;;;;;18.83;12.15;;;;;;;;;;4953418;28;20023;-62
2022/06/02 14:33:27;;;;;;;17.98;13.30;;;;;;;;;;4612983;28;10000238;-61
2022/06/02 14:36:06;;;;;;;17.95;14.48;;;;;;;;;;4955363;28;20026;-62
2022/06/02 14:38:35;;;;;;;17.10;12.90;;;;;;;;;;4957233;28;20031;-63
2022/06/02 14:41:19;;;;;;;17.98;14.20;;;;;;;;;;4955340;28;20026;-63
2022/06/02 14:44:04;;;;;;;17.75;12.93;;;;;;;;;;4952620;28;20027;-64
2022/06/02 14:46:30;;;;;;;16.40;12.60;;;;;;;;;;4947480;28;20045;-63
2022/06/02 14:48:56;;;;;;;15.98;12.35;;;;;;;;;;4948975;28;20042;-62
2022/06/02 14:51:33;;;;;;;15.50;11.35;;;;;;;;;;4937340;28;20023;-63
2022/06/02 14:53:59;;;;;;;16.67;12.27;;;;;;;;;;4955580;28;20015;-64
2022/06/02 14:56:34;;;;;;;15.45;11.63;;;;;;;;;;4956093;28;20015;-64
2022/06/02 14:59:13;;;;;;;16.45;12.60;;;;;;;;;;4956102;28;20033;-64
2022/06/02 15:01:53;;;;;;;15.73;11.57;;;;;;;;;;4955723;28;20026;-63
2022/06/02 15:04:38;;;;;;;16.55;11.90;;;;;;;;;;4952488;28;20458;-63
2022/06/02 15:07:11;;;;;;;18.88;15.80;;;;;;;;;;4949403;28;20039;-63
2022/06/02 15:09:40;;;;;;;17.63;13.63;;;;;;;;;;4961261;28;20425;-63
2022/06/02 15:12:28;;;;;;;16.45;11.40;;;;;;;;;;4956398;28;20027;-62
2022/06/02 15:14:56;;;;;;;18.10;12.75;;;;;;;;;;4947601;28;20077;-62
2022/06/02 15:17:30;;;;;;;17.52;12.30;;;;;;;;;;4947046;28;20061;-63
2022/06/02 15:19:56;;;;;;;16.42;12.38;;;;;;;;;;4946411;28;20471;-61